createdAt,value
2023-04-11T00:01:26.510Z,16.23
2023-04-11T00:03:55.018Z,17.00
2023-04-11T00:06:22.014Z,17.83
2023-04-11T00:08:48.916Z,17.47
2023-04-11T00:11:16.159Z,20.40
2023-04-11T00:13:43.365Z,19.00
2023-04-11T00:16:10.384Z,18.63
2023-04-11T00:18:39.506Z,18.20
2023-04-11T00:21:10.571Z,18.53
2023-04-11T00:23:37.443Z,19.77
2023-04-11T00:26:05.704Z,17.77
2023-04-11T00:28:32.668Z,19.30
2023-04-11T00:30:59.782Z,18.73
2023-04-11T00:33:26.704Z,16.63
2023-04-11T00:35:54.142Z,18.00
2023-04-11T00:38:21.206Z,18.33
2023-04-11T00:40:48.072Z,18.43
2023-04-11T00:43:14.921Z,20.07
2023-04-11T00:45:42.443Z,20.87
2023-04-11T00:48:09.371Z,23.57
2023-04-11T00:50:41.247Z,20.13
2023-04-11T00:53:10.937Z,19.87
2023-04-11T00:55:38.036Z,21.43
2023-04-11T00:58:07.048Z,20.30
2023-04-11T01:00:35.439Z,20.60
2023-04-11T01:03:02.732Z,20.07
2023-04-11T01:05:31.862Z,20.37
2023-04-11T01:08:00.135Z,17.80
2023-04-11T01:10:30.733Z,16.40
2023-04-11T01:13:00.283Z,16.43
2023-04-11T01:15:27.712Z,18.53
2023-04-11T01:17:55.739Z,15.80
2023-04-11T01:20:22.830Z,15.60
2023-04-11T01:22:50.632Z,16.40
2023-04-11T01:25:22.386Z,17.70
2023-04-11T01:27:49.676Z,15.27
2023-04-11T01:30:16.841Z,13.83
2023-04-11T01:32:43.780Z,14.10
2023-04-11T01:35:12.668Z,13.23
2023-04-11T01:37:39.816Z,10.67
2023-04-11T01:40:07.796Z,12.27
2023-04-11T01:42:36.923Z,11.50
2023-04-11T01:45:06.544Z,11.00
2023-04-11T01:47:34.333Z,11.57
2023-04-11T01:50:01.311Z,9.93
2023-04-11T01:52:29.421Z,10.43
2023-04-11T01:54:56.340Z,8.47
2023-04-11T01:57:23.305Z,11.43
2023-04-11T01:59:50.246Z,10.60
2023-04-11T02:02:17.474Z,10.47
2023-04-11T02:04:44.535Z,9.67
2023-04-11T02:07:14.866Z,12.63
2023-04-11T02:09:41.707Z,13.97
2023-04-11T02:12:10.708Z,13.30
2023-04-11T02:14:45.673Z,16.03
2023-04-11T02:17:14.090Z,16.10
2023-04-11T02:19:41.473Z,17.77
2023-04-11T02:22:09.346Z,18.77
2023-04-11T02:24:36.236Z,18.60
2023-04-11T02:27:03.327Z,19.67
2023-04-11T02:29:30.452Z,20.37
2023-04-11T02:31:57.426Z,21.17
2023-04-11T02:34:24.370Z,20.10
2023-04-11T02:36:51.354Z,18.20
2023-04-11T02:39:20.465Z,20.37
2023-04-11T02:41:47.718Z,20.13
2023-04-11T02:44:14.603Z,21.23
2023-04-11T02:46:43.287Z,22.30
2023-04-11T02:49:11.204Z,22.83
2023-04-11T02:51:38.584Z,19.87
2023-04-11T02:54:06.311Z,21.37
2023-04-11T02:56:38.700Z,25.37
2023-04-11T02:59:09.204Z,17.87
2023-04-11T03:01:37.760Z,16.43
2023-04-11T03:04:05.699Z,19.87
2023-04-11T03:06:43.022Z,18.70
2023-04-11T03:09:10.037Z,17.50
2023-04-11T03:11:37.388Z,19.23
2023-04-11T03:14:05.624Z,19.00
2023-04-11T03:16:32.908Z,18.80
2023-04-11T03:19:00.284Z,19.07
2023-04-11T03:21:27.490Z,22.50
2023-04-11T03:23:54.394Z,19.20
2023-04-11T03:26:21.950Z,22.30
2023-04-11T03:28:49.226Z,19.80
2023-04-11T03:31:19.588Z,22.00
2023-04-11T03:33:48.340Z,22.67
2023-04-11T03:36:15.531Z,21.57
2023-04-11T03:38:42.709Z,21.27
2023-04-11T03:41:09.636Z,20.93
2023-04-11T03:43:37.124Z,18.67
2023-04-11T03:46:04.410Z,23.37
2023-04-11T03:48:44.171Z,22.83
2023-04-11T03:51:11.368Z,20.47
2023-04-11T03:53:52.350Z,19.33
2023-04-11T03:56:32.996Z,21.47
2023-04-11T03:59:00.528Z,22.83
2023-04-11T04:01:33.977Z,18.80
2023-04-11T04:04:05.770Z,21.80
2023-04-11T04:06:36.757Z,20.87
2023-04-11T04:09:04.727Z,20.43
2023-04-11T04:11:43.384Z,21.90
2023-04-11T04:14:10.704Z,19.53
2023-04-11T04:16:48.267Z,20.63
2023-04-11T04:19:16.573Z,19.13
2023-04-11T04:21:46.749Z,19.20
2023-04-11T04:24:16.497Z,20.33
2023-04-11T04:26:52.471Z,22.50
2023-04-11T04:29:38.819Z,19.97
2023-04-11T04:32:11.738Z,20.60
2023-04-11T04:34:55.007Z,44.40
2023-04-11T04:37:30.155Z,25.93
2023-04-11T04:40:20.836Z,25.07
2023-04-11T04:42:58.993Z,20.77
2023-04-11T04:45:40.820Z,18.73
2023-04-11T04:48:07.902Z,19.27
2023-04-11T04:50:34.941Z,20.93
2023-04-11T04:53:01.786Z,18.17
2023-04-11T04:55:28.952Z,17.70
2023-04-11T04:57:56.496Z,18.97
2023-04-11T05:00:24.030Z,19.43
2023-04-11T05:02:56.289Z,18.30
2023-04-11T05:05:26.305Z,17.23
2023-04-11T05:07:53.770Z,15.93
2023-04-11T05:10:21.105Z,16.63
2023-04-11T05:12:48.538Z,16.13
2023-04-11T05:15:15.731Z,14.13
2023-04-11T05:17:42.989Z,14.13
2023-04-11T05:20:11.801Z,12.33
2023-04-11T05:22:39.190Z,10.93
2023-04-11T05:25:09.081Z,10.73
2023-04-11T05:27:39.217Z,11.03
2023-04-11T05:30:07.020Z,12.57
2023-04-11T05:32:37.830Z,9.37
2023-04-11T05:35:06.051Z,9.53
2023-04-11T05:37:46.355Z,7.07
2023-04-11T05:40:13.383Z,7.80
2023-04-11T05:42:40.328Z,6.70
2023-04-11T05:45:07.811Z,8.97
2023-04-11T05:47:35.664Z,7.60
2023-04-11T05:50:02.687Z,7.30
2023-04-11T05:52:30.734Z,7.47
2023-04-11T05:54:57.578Z,7.17
2023-04-11T05:57:24.558Z,9.27
2023-04-11T05:59:53.139Z,15.67
2023-04-11T06:02:20.191Z,7.70
2023-04-11T06:04:47.470Z,7.27
2023-04-11T06:07:14.702Z,7.60
2023-04-11T06:09:42.608Z,9.40
2023-04-11T06:12:10.578Z,7.60
2023-04-11T06:14:40.087Z,8.10
2023-04-11T06:17:07.530Z,10.67
2023-04-11T06:19:34.554Z,11.77
2023-04-11T06:22:01.870Z,12.77
2023-04-11T06:24:39.646Z,13.30
2023-04-11T06:27:10.937Z,12.30
2023-04-11T06:29:38.867Z,13.10
2023-04-11T06:32:06.946Z,16.97
2023-04-11T06:34:34.787Z,17.43
2023-04-11T06:37:01.824Z,13.33
2023-04-11T06:39:28.869Z,15.87
2023-04-11T06:41:56.555Z,13.33
2023-04-11T06:44:27.005Z,13.57
2023-04-11T06:46:54.247Z,13.70
2023-04-11T06:49:21.694Z,12.13
2023-04-11T06:51:51.763Z,14.13
2023-04-11T06:54:19.207Z,10.83
2023-04-11T06:56:47.480Z,12.20
2023-04-11T06:59:14.448Z,14.50
2023-04-11T07:01:41.900Z,12.17
2023-04-11T07:04:09.547Z,12.10
2023-04-11T07:06:36.950Z,10.27
2023-04-11T07:09:05.291Z,9.33
2023-04-11T07:11:33.621Z,11.00
2023-04-11T07:14:00.929Z,11.97
2023-04-11T07:16:28.829Z,11.00
2023-04-11T07:18:56.329Z,10.83
2023-04-11T07:21:23.406Z,9.73
2023-04-11T07:23:50.468Z,9.60
2023-04-11T07:26:18.156Z,10.57
2023-04-11T07:28:46.227Z,10.33
2023-04-11T07:31:14.205Z,11.63
2023-04-11T07:33:44.393Z,11.77
2023-04-11T07:36:11.626Z,9.10
2023-04-11T07:38:38.675Z,10.97
2023-04-11T07:41:06.261Z,9.73
2023-04-11T07:43:33.464Z,9.93
2023-04-11T07:46:00.872Z,11.97
2023-04-11T07:48:28.397Z,11.40
2023-04-11T07:50:55.517Z,11.20
2023-04-11T07:53:23.077Z,10.27
2023-04-11T07:55:50.371Z,9.83
2023-04-11T07:58:17.379Z,10.17
2023-04-11T08:00:44.460Z,9.47
2023-04-11T08:03:13.460Z,7.70
2023-04-11T08:05:40.857Z,8.20
2023-04-11T08:08:08.068Z,10.77
2023-04-11T08:10:35.109Z,8.43
2023-04-11T08:13:02.118Z,7.93
2023-04-11T08:15:29.067Z,9.40
2023-04-11T08:17:56.636Z,8.17
2023-04-11T08:20:24.722Z,10.47
2023-04-11T08:22:51.855Z,6.60
2023-04-11T08:25:22.958Z,8.83
2023-04-11T08:27:50.932Z,8.00
2023-04-11T08:30:18.011Z,8.97
2023-04-11T08:32:45.184Z,8.47
2023-04-11T08:35:12.274Z,8.73
2023-04-11T08:37:39.465Z,8.90
2023-04-11T08:40:07.304Z,8.83
2023-04-11T08:42:35.328Z,10.17
2023-04-11T08:45:08.475Z,9.87
2023-04-11T08:47:37.027Z,9.23
2023-04-11T08:50:05.772Z,9.20
2023-04-11T08:52:34.103Z,10.70
2023-04-11T08:55:01.771Z,12.63
2023-04-11T08:57:34.886Z,12.60
2023-04-11T09:00:19.191Z,11.27
2023-04-11T09:02:56.750Z,11.57
2023-04-11T09:05:34.483Z,10.80
2023-04-11T09:08:04.334Z,14.00
2023-04-11T09:10:31.545Z,11.30
2023-04-11T09:12:59.291Z,12.77
2023-04-11T09:15:28.556Z,13.00
2023-04-11T09:17:59.786Z,15.67
2023-04-11T09:20:30.438Z,15.93
2023-04-11T09:23:01.519Z,18.23
2023-04-11T09:25:28.881Z,14.13
2023-04-11T09:28:10.163Z,12.30
2023-04-11T09:30:37.445Z,11.77
2023-04-11T09:33:22.521Z,11.30
2023-04-11T09:35:54.424Z,12.33
2023-04-11T09:38:36.361Z,13.73
2023-04-11T09:41:04.627Z,14.80
2023-04-11T09:43:58.254Z,12.20
2023-04-11T09:46:25.570Z,11.70
2023-04-11T09:48:54.840Z,12.53
2023-04-11T09:51:35.241Z,14.53
2023-04-11T09:54:04.135Z,20.50
2023-04-11T09:56:32.105Z,12.23
2023-04-11T09:59:00.622Z,12.60
2023-04-11T10:01:28.189Z,12.40
2023-04-11T10:03:56.585Z,10.83
2023-04-11T10:06:38.893Z,11.03
2023-04-11T10:09:11.782Z,12.23
2023-04-11T10:11:46.708Z,13.07
2023-04-11T10:14:46.138Z,12.10
2023-04-11T10:17:23.338Z,10.90
2023-04-11T10:19:57.528Z,12.00
2023-04-11T10:22:46.500Z,12.63
2023-04-11T10:25:21.203Z,10.73
2023-04-11T10:28:03.856Z,8.33
2023-04-11T10:30:40.015Z,9.00
2023-04-11T10:33:11.251Z,10.57
2023-04-11T10:36:12.905Z,9.53
2023-04-11T10:38:49.481Z,10.70
2023-04-11T10:41:22.877Z,9.00
2023-04-11T10:43:50.242Z,9.73
2023-04-11T10:46:26.608Z,9.33
2023-04-11T10:49:01.580Z,13.10
2023-04-11T10:51:33.404Z,11.63
2023-04-11T10:54:01.300Z,12.43
2023-04-11T10:56:40.799Z,8.57
2023-04-11T10:59:10.037Z,9.20
2023-04-11T11:05:00.490Z,8.80
2023-04-11T11:07:27.749Z,8.33
2023-04-11T11:09:54.871Z,8.33
2023-04-11T11:12:21.998Z,7.80
2023-04-11T11:14:48.852Z,6.97
2023-04-11T11:17:17.346Z,9.13
2023-04-11T11:19:45.917Z,7.43
2023-04-11T11:22:16.619Z,8.10
2023-04-11T11:24:43.645Z,14.27
2023-04-11T11:27:24.513Z,7.03
2023-04-11T11:29:52.735Z,8.10
2023-04-11T11:32:32.866Z,9.23
2023-04-11T11:35:00.330Z,8.60
2023-04-11T11:37:27.267Z,9.23
2023-04-11T11:39:54.346Z,8.80
2023-04-11T11:42:22.035Z,8.93
2023-04-11T11:44:49.018Z,10.70
2023-04-11T11:47:16.146Z,10.60
2023-04-11T11:49:54.316Z,8.70
2023-04-11T11:52:34.430Z,8.30
2023-04-11T11:55:03.814Z,9.90
2023-04-11T11:57:31.239Z,8.77
2023-04-11T12:00:01.493Z,6.90
2023-04-11T12:02:35.073Z,7.93
2023-04-11T12:05:06.371Z,10.70
2023-04-11T12:07:36.801Z,9.90
2023-04-11T12:10:09.525Z,10.07
2023-04-11T12:12:43.901Z,6.33
2023-04-11T12:15:22.637Z,7.23
2023-04-11T12:17:52.042Z,7.13
2023-04-11T12:20:28.195Z,7.30
2023-04-11T12:22:56.287Z,8.60
2023-04-11T12:25:23.334Z,8.20
2023-04-11T12:27:50.347Z,6.93
2023-04-11T12:30:17.979Z,8.27
2023-04-11T12:32:45.404Z,9.47
2023-04-11T12:35:13.191Z,7.30
2023-04-11T12:37:40.486Z,6.43
2023-04-11T12:40:12.153Z,8.57
2023-04-11T12:45:14.092Z,8.70
2023-04-11T12:47:41.253Z,8.13
2023-04-11T12:50:09.378Z,8.20
2023-04-11T12:52:37.057Z,7.03
2023-04-11T12:55:04.784Z,7.63
2023-04-11T12:57:31.732Z,7.00
2023-04-11T12:59:59.314Z,9.27
2023-04-11T13:02:27.156Z,7.23
2023-04-11T13:04:55.333Z,7.03
2023-04-11T13:07:22.426Z,6.47
2023-04-11T13:09:49.720Z,6.47
2023-04-11T13:12:16.682Z,11.90
2023-04-11T13:14:43.671Z,7.93
2023-04-11T13:17:11.625Z,8.03
2023-04-11T13:19:38.526Z,8.20
2023-04-11T13:22:05.889Z,7.37
2023-04-11T13:24:33.649Z,8.53
2023-04-11T13:27:00.613Z,8.23
2023-04-11T13:29:27.581Z,7.03
2023-04-11T13:31:54.585Z,5.60
2023-04-11T13:34:21.669Z,6.50
2023-04-11T13:36:48.693Z,10.33
2023-04-11T13:39:16.069Z,5.30
2023-04-11T13:41:43.153Z,6.47
2023-04-11T13:44:10.532Z,4.27
2023-04-11T13:46:37.441Z,5.90
2023-04-11T13:49:06.161Z,8.10
2023-04-11T13:51:35.703Z,5.90
2023-04-11T13:54:02.572Z,5.07
2023-04-11T13:56:29.796Z,5.43
2023-04-11T13:58:56.941Z,6.03
2023-04-11T14:01:24.059Z,5.50
2023-04-11T14:03:51.306Z,4.97
2023-04-11T14:06:19.716Z,6.73
2023-04-11T14:08:48.596Z,6.13
2023-04-11T14:11:16.099Z,5.13
2023-04-11T14:13:43.058Z,6.47
2023-04-11T14:16:10.052Z,6.40
2023-04-11T14:18:37.277Z,6.27
2023-04-11T14:21:05.781Z,5.60
2023-04-11T14:23:33.128Z,6.47
2023-04-11T14:26:00.150Z,5.17
2023-04-11T14:28:27.157Z,4.97
2023-04-11T14:31:35.194Z,6.20
2023-04-11T14:34:02.276Z,5.57
2023-04-11T14:36:29.170Z,5.87
2023-04-11T14:38:56.085Z,7.03
2023-04-11T14:41:23.432Z,6.73
2023-04-11T14:43:50.465Z,4.43
2023-04-11T14:46:17.455Z,4.90
2023-04-11T14:48:44.412Z,4.60
2023-04-11T14:51:11.419Z,4.67
2023-04-11T14:53:38.338Z,7.20
2023-04-11T14:56:06.550Z,4.93
2023-04-11T14:58:33.781Z,5.13
2023-04-11T15:01:00.818Z,5.90
2023-04-11T15:03:28.643Z,5.27
2023-04-11T15:05:55.979Z,4.53
2023-04-11T15:08:22.924Z,4.77
2023-04-11T15:10:54.115Z,6.07
2023-04-11T15:13:22.615Z,5.37
2023-04-11T15:15:49.640Z,7.27
2023-04-11T15:18:22.390Z,5.30
2023-04-11T15:20:50.125Z,6.30
2023-04-11T15:23:21.078Z,8.30
2023-04-11T15:25:59.706Z,6.60
2023-04-11T15:28:31.501Z,5.13
2023-04-11T15:30:59.411Z,6.53
2023-04-11T15:33:27.742Z,6.73
2023-04-11T15:35:54.855Z,7.00
2023-04-11T15:38:22.915Z,6.10
2023-04-11T15:40:54.721Z,7.80
2023-04-11T15:43:22.839Z,9.90
2023-04-11T15:45:50.512Z,8.67
2023-04-11T15:48:17.387Z,6.03
2023-04-11T15:50:45.076Z,8.33
2023-04-11T15:53:12.056Z,10.50
2023-04-11T15:55:43.453Z,6.53
2023-04-11T15:58:10.769Z,7.13
2023-04-11T16:00:39.997Z,8.47
2023-04-11T16:03:08.737Z,6.47
2023-04-11T16:05:41.346Z,6.87
2023-04-11T16:08:08.317Z,7.90
2023-04-11T16:10:35.741Z,6.27
2023-04-11T16:13:03.109Z,6.80
2023-04-11T16:15:30.083Z,6.03
2023-04-11T16:17:56.992Z,8.07
2023-04-11T16:20:24.317Z,6.17
2023-04-11T16:22:51.355Z,6.37
2023-04-11T16:25:21.224Z,7.37
2023-04-11T16:27:48.728Z,8.07
2023-04-11T16:30:16.851Z,9.13
2023-04-11T16:32:44.551Z,7.67
2023-04-11T16:35:12.041Z,8.23
2023-04-11T16:37:39.037Z,9.73
2023-04-11T16:40:11.470Z,8.63
2023-04-11T16:42:40.028Z,9.07
2023-04-11T16:45:08.497Z,10.00
2023-04-11T16:47:35.804Z,10.00
2023-04-11T16:50:03.835Z,7.17
2023-04-11T16:52:31.165Z,11.17
2023-04-11T16:54:58.085Z,9.13
2023-04-11T16:57:25.763Z,8.63
2023-04-11T16:59:53.203Z,12.43
2023-04-11T17:02:20.368Z,11.17
2023-04-11T17:04:47.437Z,9.93
2023-04-11T17:07:14.359Z,11.20
2023-04-11T17:09:41.550Z,11.23
2023-04-11T17:12:08.509Z,8.53
2023-04-11T17:14:36.472Z,8.50
2023-04-11T17:17:03.656Z,8.10
2023-04-11T17:19:31.588Z,9.67
2023-04-11T17:21:58.596Z,9.43
2023-04-11T17:24:25.785Z,8.93
2023-04-11T17:26:53.422Z,7.87
2023-04-11T17:29:20.340Z,7.70
2023-04-11T17:31:47.478Z,7.70
2023-04-11T17:34:14.440Z,10.13
2023-04-11T17:36:43.031Z,8.23
2023-04-11T17:39:17.814Z,10.30
2023-04-11T17:41:46.238Z,13.87
2023-04-11T17:44:17.534Z,10.33
2023-04-11T17:46:44.665Z,6.27
2023-04-11T17:49:11.607Z,8.43
2023-04-11T17:51:43.029Z,8.87
2023-04-11T17:54:15.846Z,10.40
2023-04-11T17:56:42.770Z,11.00
2023-04-11T17:59:11.660Z,10.17
2023-04-11T18:01:39.025Z,12.27
2023-04-11T18:04:09.573Z,9.47
2023-04-11T18:06:36.627Z,11.37
2023-04-11T18:09:05.685Z,10.73
2023-04-11T18:11:32.649Z,9.03
2023-04-11T18:13:59.874Z,10.23
2023-04-11T18:16:27.011Z,12.17
2023-04-11T18:18:54.140Z,10.50
2023-04-11T18:21:21.782Z,10.13
2023-04-11T18:23:48.772Z,10.23
2023-04-11T18:26:15.861Z,9.23
2023-04-11T18:28:42.826Z,11.57
2023-04-11T18:31:10.296Z,9.50
2023-04-11T18:33:40.927Z,9.60
2023-04-11T18:36:10.802Z,10.63
2023-04-11T18:38:37.769Z,6.90
2023-04-11T18:41:07.238Z,7.10
2023-04-11T18:46:57.576Z,10.40
2023-04-11T18:49:26.889Z,9.30
2023-04-11T18:51:55.036Z,9.63
2023-04-11T18:54:23.367Z,10.30
2023-04-11T18:56:53.163Z,13.20
2023-04-11T18:59:24.891Z,15.93
2023-04-11T19:01:53.004Z,10.03
2023-04-11T19:04:20.855Z,9.13
2023-04-11T19:06:48.011Z,9.27
2023-04-11T19:09:15.355Z,9.83
2023-04-11T19:11:42.353Z,8.97
2023-04-11T19:14:09.731Z,9.03
2023-04-11T19:16:37.141Z,9.10
2023-04-11T19:19:04.527Z,11.00
2023-04-11T19:21:48.838Z,8.80
2023-04-11T19:24:16.158Z,9.57
2023-04-11T19:26:43.845Z,11.57
2023-04-11T19:29:10.846Z,8.60
2023-04-11T19:31:37.868Z,7.90
2023-04-11T19:34:04.834Z,6.37
2023-04-11T19:36:31.761Z,8.43
2023-04-11T19:38:58.685Z,8.47
2023-04-11T19:41:25.962Z,8.47
2023-04-11T19:43:52.845Z,10.00
2023-04-11T19:46:20.284Z,7.63
2023-04-11T19:48:49.958Z,8.40
2023-04-11T19:51:17.861Z,8.30
2023-04-11T19:53:44.927Z,9.93
2023-04-11T19:56:11.941Z,8.93
2023-04-11T19:58:39.971Z,9.30
2023-04-11T20:01:07.450Z,11.67
2023-04-11T20:03:34.571Z,12.23
2023-04-11T20:06:05.291Z,9.63
2023-04-11T20:08:32.782Z,8.23
2023-04-11T20:10:59.921Z,10.97
2023-04-11T20:13:26.892Z,9.33
2023-04-11T20:15:53.881Z,11.13
2023-04-11T20:18:21.056Z,11.27
2023-04-11T20:20:48.442Z,9.30
2023-04-11T20:23:18.679Z,11.60
2023-04-11T20:25:45.632Z,10.37
2023-04-11T20:28:12.517Z,10.47
2023-04-11T20:30:39.691Z,10.37
2023-04-11T20:33:06.871Z,10.13
2023-04-11T20:35:33.966Z,10.40
2023-04-11T20:38:01.049Z,11.80
2023-04-11T20:40:28.201Z,11.27
2023-04-11T20:42:56.390Z,9.13
2023-04-11T20:45:25.711Z,11.83
2023-04-11T20:47:53.010Z,9.40
2023-04-11T20:50:21.549Z,10.10
2023-04-11T20:52:53.177Z,10.70
2023-04-11T20:55:21.000Z,9.57
2023-04-11T20:57:48.140Z,7.60
2023-04-11T21:00:17.336Z,8.87
2023-04-11T21:02:47.024Z,8.90
2023-04-11T21:05:15.045Z,9.30
2023-04-11T21:07:43.273Z,8.57
2023-04-11T21:10:12.091Z,7.93
2023-04-11T21:12:42.301Z,8.60
2023-04-11T21:15:09.762Z,7.27
2023-04-11T21:17:37.404Z,11.07
2023-04-11T21:20:17.908Z,8.17
2023-04-11T21:22:49.764Z,8.60
2023-04-11T21:25:16.807Z,8.70
2023-04-11T21:27:43.800Z,7.90
2023-04-11T21:30:12.284Z,8.07
2023-04-11T21:32:39.976Z,8.13
2023-04-11T21:35:09.079Z,8.47
2023-04-11T21:37:36.191Z,10.77
2023-04-11T21:40:03.729Z,7.80
2023-04-11T21:42:31.577Z,8.30
2023-04-11T21:44:58.556Z,7.43
2023-04-11T21:47:25.761Z,7.97
2023-04-11T21:49:52.724Z,8.53
2023-04-11T21:52:19.877Z,6.43
2023-04-11T21:54:46.964Z,7.97
2023-04-11T21:57:13.900Z,8.03
2023-04-11T21:59:41.059Z,7.77
2023-04-11T22:02:08.404Z,8.30
2023-04-11T22:04:41.428Z,8.87
2023-04-11T22:07:15.852Z,8.23
2023-04-11T22:09:46.943Z,9.50
2023-04-11T22:12:19.883Z,8.23
2023-04-11T22:14:46.709Z,9.20
2023-04-11T22:20:40.736Z,8.50
2023-04-11T22:23:09.272Z,6.87
2023-04-11T22:25:37.437Z,9.23
2023-04-11T22:28:05.149Z,6.53
2023-04-11T22:30:32.313Z,8.73
2023-04-11T22:33:01.866Z,8.37
2023-04-11T22:35:30.054Z,7.57
2023-04-11T22:37:57.380Z,8.10
2023-04-11T22:40:24.399Z,7.37
2023-04-11T22:42:52.075Z,7.87
2023-04-11T22:45:20.656Z,7.23
2023-04-11T22:47:47.642Z,7.43
2023-04-11T22:50:15.827Z,8.13
2023-04-11T22:52:42.807Z,8.10
2023-04-11T22:55:16.202Z,7.43
2023-04-11T22:57:43.031Z,8.00
2023-04-11T23:00:12.224Z,8.67
2023-04-11T23:02:40.002Z,8.47
2023-04-11T23:05:08.398Z,7.30
2023-04-11T23:07:35.771Z,7.07
2023-04-11T23:10:05.772Z,7.43
2023-04-11T23:12:32.723Z,8.27
2023-04-11T23:15:02.272Z,8.67
2023-04-11T23:17:30.051Z,6.37
2023-04-11T23:19:59.379Z,8.17
2023-04-11T23:22:26.659Z,7.90
2023-04-11T23:24:53.897Z,8.73
2023-04-11T23:27:21.203Z,8.57
2023-04-11T23:29:52.591Z,8.53
2023-04-11T23:32:20.087Z,7.23
2023-04-11T23:34:46.959Z,8.47
2023-04-11T23:37:13.879Z,8.73
2023-04-11T23:39:41.128Z,7.63
2023-04-11T23:42:08.135Z,8.23
2023-04-11T23:44:35.108Z,7.63
2023-04-11T23:47:02.027Z,8.07
2023-04-11T23:49:28.933Z,9.13
2023-04-11T23:51:55.751Z,8.20
2023-04-11T23:54:22.731Z,7.97
2023-04-11T23:56:50.884Z,9.67
2023-04-11T23:59:17.815Z,7.47
